Central, Connecticut
Current Conditions -  °F | °C
As of 5:53 AM on Thursday 18 Dec 2014 (Local Time) from KHFD Reporting Station
Overcast Overcast  
Wind Chill: -1°   Ceiling: 6000
Heat Index:   Visibility: 10mi
Dew Point: -2°   Wind: 12mph
Humidity: 70%   Direction: 260°W
Pressure: 29.85"   Gusts: NA
Location:  41.7665°N, 72.6731°W
Report Text: KHFD 181053Z AUTO 26010KT 10SM FEW032 SCT050 OVC060 03/M02 A2985 RMK AO2 RAB15E34 SLP106 P0000 T00331017
Loading
Personal Weather Stations






























Interactive Weather Map New forecast layout! Learn more

10-Day Weather Forecast

Advertisements
Track Severe Weather on mobile